sensor_id;sensor_type;location;lat;lon;timestamp;temperature;humidity
39017;DHT22;24784;45.582;5.276;2024-03-29T00:02:07;12.50;88.10
39017;DHT22;24784;45.582;5.276;2024-03-29T00:04:33;12.40;88.10
39017;DHT22;24784;45.582;5.276;2024-03-29T00:06:59;12.40;88.30
39017;DHT22;24784;45.582;5.276;2024-03-29T00:09:25;12.30;88.80
39017;DHT22;24784;45.582;5.276;2024-03-29T00:11:50;12.30;88.70
39017;DHT22;24784;45.582;5.276;2024-03-29T00:14:16;12.30;89.20
39017;DHT22;24784;45.582;5.276;2024-03-29T00:16:41;12.30;88.90
39017;DHT22;24784;45.582;5.276;2024-03-29T00:19:07;12.20;89.50
39017;DHT22;24784;45.582;5.276;2024-03-29T00:21:33;12.20;89.40
39017;DHT22;24784;45.582;5.276;2024-03-29T00:23:58;12.20;89.90
39017;DHT22;24784;45.582;5.276;2024-03-29T00:26:24;12.10;90.10
39017;DHT22;24784;45.582;5.276;2024-03-29T00:28:49;12.00;90.40
39017;DHT22;24784;45.582;5.276;2024-03-29T00:31:15;11.90;90.60
39017;DHT22;24784;45.582;5.276;2024-03-29T00:33:41;11.80;90.70
39017;DHT22;24784;45.582;5.276;2024-03-29T00:36:06;11.80;91.10
39017;DHT22;24784;45.582;5.276;2024-03-29T00:38:32;11.70;91.00
39017;DHT22;24784;45.582;5.276;2024-03-29T00:40:58;11.60;91.20
39017;DHT22;24784;45.582;5.276;2024-03-29T00:43:23;11.60;91.20
39017;DHT22;24784;45.582;5.276;2024-03-29T00:45:49;11.60;91.10
39017;DHT22;24784;45.582;5.276;2024-03-29T00:48:14;11.50;91.40
39017;DHT22;24784;45.582;5.276;2024-03-29T00:50:42;11.50;91.80
39017;DHT22;24784;45.582;5.276;2024-03-29T00:53:08;11.50;92.00
39017;DHT22;24784;45.582;5.276;2024-03-29T00:55:34;11.60;91.70
39017;DHT22;24784;45.582;5.276;2024-03-29T00:58:00;11.50;91.80
39017;DHT22;24784;45.582;5.276;2024-03-29T01:00:25;11.50;92.00
39017;DHT22;24784;45.582;5.276;2024-03-29T01:02:51;11.50;91.90
39017;DHT22;24784;45.582;5.276;2024-03-29T01:05:16;11.40;92.20
39017;DHT22;24784;45.582;5.276;2024-03-29T01:07:42;11.40;92.70
39017;DHT22;24784;45.582;5.276;2024-03-29T01:10:08;11.50;92.10
39017;DHT22;24784;45.582;5.276;2024-03-29T01:12:37;11.60;92.30
39017;DHT22;24784;45.582;5.276;2024-03-29T01:15:05;11.50;92.60
39017;DHT22;24784;45.582;5.276;2024-03-29T01:17:30;11.40;93.30
39017;DHT22;24784;45.582;5.276;2024-03-29T01:19:56;11.30;93.40
39017;DHT22;24784;45.582;5.276;2024-03-29T01:22:22;11.30;93.10
39017;DHT22;24784;45.582;5.276;2024-03-29T01:24:47;11.30;93.10
39017;DHT22;24784;45.582;5.276;2024-03-29T01:27:13;11.20;93.40
39017;DHT22;24784;45.582;5.276;2024-03-29T01:29:39;11.20;93.30
39017;DHT22;24784;45.582;5.276;2024-03-29T01:32:05;11.20;93.70
39017;DHT22;24784;45.582;5.276;2024-03-29T01:34:31;11.10;93.90
39017;DHT22;24784;45.582;5.276;2024-03-29T01:36:57;11.10;94.10
39017;DHT22;24784;45.582;5.276;2024-03-29T01:39:23;11.10;94.10
39017;DHT22;24784;45.582;5.276;2024-03-29T01:41:54;11.20;94.00
39017;DHT22;24784;45.582;5.276;2024-03-29T01:44:19;11.20;93.60
39017;DHT22;24784;45.582;5.276;2024-03-29T01:46:45;11.30;93.60
39017;DHT22;24784;45.582;5.276;2024-03-29T01:49:13;11.30;93.70
39017;DHT22;24784;45.582;5.276;2024-03-29T01:51:39;11.30;93.60
39017;DHT22;24784;45.582;5.276;2024-03-29T01:54:06;11.40;93.50
39017;DHT22;24784;45.582;5.276;2024-03-29T01:56:35;11.30;93.90
39017;DHT22;24784;45.582;5.276;2024-03-29T01:59:03;11.30;94.30
39017;DHT22;24784;45.582;5.276;2024-03-29T02:01:30;11.20;94.50
39017;DHT22;24784;45.582;5.276;2024-03-29T02:03:56;11.20;94.50
39017;DHT22;24784;45.582;5.276;2024-03-29T02:06:22;11.10;94.60
39017;DHT22;24784;45.582;5.276;2024-03-29T02:08:50;11.20;94.70
39017;DHT22;24784;45.582;5.276;2024-03-29T02:11:17;11.30;94.50
39017;DHT22;24784;45.582;5.276;2024-03-29T02:13:43;11.20;94.70
39017;DHT22;24784;45.582;5.276;2024-03-29T02:16:09;11.30;94.30
39017;DHT22;24784;45.582;5.276;2024-03-29T02:18:35;11.30;94.70
39017;DHT22;24784;45.582;5.276;2024-03-29T02:21:00;11.50;94.20
39017;DHT22;24784;45.582;5.276;2024-03-29T02:23:27;11.40;94.50
39017;DHT22;24784;45.582;5.276;2024-03-29T02:25:55;11.40;94.80
39017;DHT22;24784;45.582;5.276;2024-03-29T02:28:22;11.50;94.50
39017;DHT22;24784;45.582;5.276;2024-03-29T02:30:49;11.50;94.60
39017;DHT22;24784;45.582;5.276;2024-03-29T02:33:15;11.50;94.60
39017;DHT22;24784;45.582;5.276;2024-03-29T02:35:40;11.50;94.80
39017;DHT22;24784;45.582;5.276;2024-03-29T02:38:06;11.50;95.00
39017;DHT22;24784;45.582;5.276;2024-03-29T02:40:31;11.50;94.90
39017;DHT22;24784;45.582;5.276;2024-03-29T02:42:57;11.60;94.80
39017;DHT22;24784;45.582;5.276;2024-03-29T02:45:23;11.70;94.60
39017;DHT22;24784;45.582;5.276;2024-03-29T02:47:48;11.70;94.70
39017;DHT22;24784;45.582;5.276;2024-03-29T02:50:15;11.70;94.80
39017;DHT22;24784;45.582;5.276;2024-03-29T02:52:41;11.50;95.20
39017;DHT22;24784;45.582;5.276;2024-03-29T02:55:07;11.50;95.30
39017;DHT22;24784;45.582;5.276;2024-03-29T02:57:32;11.60;95.60
39017;DHT22;24784;45.582;5.276;2024-03-29T02:59:58;11.50;95.80
39017;DHT22;24784;45.582;5.276;2024-03-29T03:02:24;11.50;95.80
39017;DHT22;24784;45.582;5.276;2024-03-29T03:04:49;11.50;96.10
39017;DHT22;24784;45.582;5.276;2024-03-29T03:07:15;11.40;96.40
39017;DHT22;24784;45.582;5.276;2024-03-29T03:09:59;11.40;96.40
39017;DHT22;24784;45.582;5.276;2024-03-29T03:12:43;11.40;96.50
39017;DHT22;24784;45.582;5.276;2024-03-29T03:15:09;11.50;96.50
39017;DHT22;24784;45.582;5.276;2024-03-29T03:17:35;11.40;96.80
39017;DHT22;24784;45.582;5.276;2024-03-29T03:20:00;11.40;97.10
39017;DHT22;24784;45.582;5.276;2024-03-29T03:22:26;11.40;97.00
39017;DHT22;24784;45.582;5.276;2024-03-29T03:24:51;11.30;97.20
39017;DHT22;24784;45.582;5.276;2024-03-29T03:27:17;11.30;97.60
39017;DHT22;24784;45.582;5.276;2024-03-29T03:29:43;11.30;97.40
39017;DHT22;24784;45.582;5.276;2024-03-29T03:32:09;11.30;97.60
39017;DHT22;24784;45.582;5.276;2024-03-29T03:34:34;11.40;97.30
39017;DHT22;24784;45.582;5.276;2024-03-29T03:37:00;11.50;97.20
39017;DHT22;24784;45.582;5.276;2024-03-29T03:39:25;11.60;97.10
39017;DHT22;24784;45.582;5.276;2024-03-29T03:41:51;11.70;97.10
39017;DHT22;24784;45.582;5.276;2024-03-29T03:44:17;11.70;97.10
39017;DHT22;24784;45.582;5.276;2024-03-29T03:46:42;11.70;97.10
39017;DHT22;24784;45.582;5.276;2024-03-29T03:49:08;11.70;97.20
39017;DHT22;24784;45.582;5.276;2024-03-29T03:51:34;11.70;97.40
39017;DHT22;24784;45.582;5.276;2024-03-29T03:53:59;11.70;97.40
39017;DHT22;24784;45.582;5.276;2024-03-29T03:56:25;11.60;97.60
39017;DHT22;24784;45.582;5.276;2024-03-29T03:58:50;11.90;97.60
39017;DHT22;24784;45.582;5.276;2024-03-29T04:01:16;12.10;97.00
39017;DHT22;24784;45.582;5.276;2024-03-29T04:03:42;12.30;96.70
39017;DHT22;24784;45.582;5.276;2024-03-29T04:06:07;12.40;96.70
39017;DHT22;24784;45.582;5.276;2024-03-29T04:08:33;12.40;96.70
39017;DHT22;24784;45.582;5.276;2024-03-29T04:11:02;12.50;96.60
39017;DHT22;24784;45.582;5.276;2024-03-29T04:13:28;12.60;96.30
39017;DHT22;24784;45.582;5.276;2024-03-29T04:16:01;12.80;96.10
39017;DHT22;24784;45.582;5.276;2024-03-29T04:18:27;12.90;96.20
39017;DHT22;24784;45.582;5.276;2024-03-29T04:21:03;12.90;96.20
39017;DHT22;24784;45.582;5.276;2024-03-29T04:23:29;12.90;96.30
39017;DHT22;24784;45.582;5.276;2024-03-29T04:25:55;13.00;96.30
39017;DHT22;24784;45.582;5.276;2024-03-29T04:28:21;12.90;96.30
39017;DHT22;24784;45.582;5.276;2024-03-29T04:30:57;12.90;96.50
39017;DHT22;24784;45.582;5.276;2024-03-29T04:33:24;12.90;96.50
39017;DHT22;24784;45.582;5.276;2024-03-29T04:35:59;12.90;96.70
39017;DHT22;24784;45.582;5.276;2024-03-29T04:38:28;12.90;96.80
39017;DHT22;24784;45.582;5.276;2024-03-29T04:40:56;12.90;96.90
39017;DHT22;24784;45.582;5.276;2024-03-29T04:43:24;12.80;97.00
39017;DHT22;24784;45.582;5.276;2024-03-29T04:45:50;12.90;97.20
39017;DHT22;24784;45.582;5.276;2024-03-29T04:48:17;12.80;97.20
39017;DHT22;24784;45.582;5.276;2024-03-29T04:50:42;12.80;97.20
39017;DHT22;24784;45.582;5.276;2024-03-29T04:53:08;12.80;97.30
39017;DHT22;24784;45.582;5.276;2024-03-29T04:55:34;12.70;97.70
39017;DHT22;24784;45.582;5.276;2024-03-29T04:58:01;12.70;97.70
39017;DHT22;24784;45.582;5.276;2024-03-29T05:00:27;12.70;97.60
39017;DHT22;24784;45.582;5.276;2024-03-29T05:02:52;12.60;97.80
39017;DHT22;24784;45.582;5.276;2024-03-29T05:05:18;12.70;97.80
39017;DHT22;24784;45.582;5.276;2024-03-29T05:07:43;12.70;97.80
39017;DHT22;24784;45.582;5.276;2024-03-29T05:10:09;12.80;97.80
39017;DHT22;24784;45.582;5.276;2024-03-29T05:12:36;12.80;97.70
39017;DHT22;24784;45.582;5.276;2024-03-29T05:15:02;12.90;97.60
39017;DHT22;24784;45.582;5.276;2024-03-29T05:17:27;13.10;97.60
39017;DHT22;24784;45.582;5.276;2024-03-29T05:19:53;13.10;97.60
39017;DHT22;24784;45.582;5.276;2024-03-29T05:22:19;13.30;97.50
39017;DHT22;24784;45.582;5.276;2024-03-29T05:24:45;13.30;97.60
39017;DHT22;24784;45.582;5.276;2024-03-29T05:27:14;13.20;97.70
39017;DHT22;24784;45.582;5.276;2024-03-29T05:29:40;13.30;97.90
39017;DHT22;24784;45.582;5.276;2024-03-29T05:32:07;13.20;98.00
39017;DHT22;24784;45.582;5.276;2024-03-29T05:34:32;13.30;98.00
39017;DHT22;24784;45.582;5.276;2024-03-29T05:36:58;13.30;98.10
39017;DHT22;24784;45.582;5.276;2024-03-29T05:39:24;13.30;98.20
39017;DHT22;24784;45.582;5.276;2024-03-29T05:41:50;13.30;98.20
39017;DHT22;24784;45.582;5.276;2024-03-29T05:44:15;13.40;98.30
39017;DHT22;24784;45.582;5.276;2024-03-29T05:46:41;13.40;98.30
39017;DHT22;24784;45.582;5.276;2024-03-29T05:49:07;13.40;98.30
39017;DHT22;24784;45.582;5.276;2024-03-29T05:51:32;13.40;98.30
39017;DHT22;24784;45.582;5.276;2024-03-29T05:54:01;13.50;98.30
39017;DHT22;24784;45.582;5.276;2024-03-29T05:56:29;13.50;98.40
39017;DHT22;24784;45.582;5.276;2024-03-29T05:58:55;13.50;98.40
39017;DHT22;24784;45.582;5.276;2024-03-29T06:01:20;13.60;98.20
39017;DHT22;24784;45.582;5.276;2024-03-29T06:03:48;13.50;98.10
39017;DHT22;24784;45.582;5.276;2024-03-29T06:06:14;13.50;98.20
39017;DHT22;24784;45.582;5.276;2024-03-29T06:08:43;13.50;98.30
39017;DHT22;24784;45.582;5.276;2024-03-29T06:11:09;13.50;98.20
39017;DHT22;24784;45.582;5.276;2024-03-29T06:13:35;13.60;98.10
39017;DHT22;24784;45.582;5.276;2024-03-29T06:16:25;13.70;98.00
39017;DHT22;24784;45.582;5.276;2024-03-29T06:19:10;13.80;97.80
39017;DHT22;24784;45.582;5.276;2024-03-29T06:21:36;13.80;97.70
39017;DHT22;24784;45.582;5.276;2024-03-29T06:24:09;14.00;97.60
39017;DHT22;24784;45.582;5.276;2024-03-29T06:26:38;14.00;97.50
39017;DHT22;24784;45.582;5.276;2024-03-29T06:29:04;13.90;97.70
39017;DHT22;24784;45.582;5.276;2024-03-29T06:31:30;14.10;97.40
39017;DHT22;24784;45.582;5.276;2024-03-29T06:33:58;14.00;97.60
39017;DHT22;24784;45.582;5.276;2024-03-29T06:36:24;14.00;97.70
39017;DHT22;24784;45.582;5.276;2024-03-29T06:38:51;14.00;97.60
39017;DHT22;24784;45.582;5.276;2024-03-29T06:41:16;14.10;97.60
39017;DHT22;24784;45.582;5.276;2024-03-29T06:43:42;14.20;97.60
39017;DHT22;24784;45.582;5.276;2024-03-29T06:46:14;14.40;97.20
39017;DHT22;24784;45.582;5.276;2024-03-29T06:48:40;14.40;97.30
39017;DHT22;24784;45.582;5.276;2024-03-29T06:51:05;14.40;97.40
39017;DHT22;24784;45.582;5.276;2024-03-29T06:53:31;14.40;97.30
39017;DHT22;24784;45.582;5.276;2024-03-29T06:55:59;14.40;97.50
39017;DHT22;24784;45.582;5.276;2024-03-29T06:58:25;14.40;97.70
39017;DHT22;24784;45.582;5.276;2024-03-29T07:00:50;14.50;97.70
39017;DHT22;24784;45.582;5.276;2024-03-29T07:03:17;14.50;97.60
39017;DHT22;24784;45.582;5.276;2024-03-29T07:05:45;14.50;97.90
39017;DHT22;24784;45.582;5.276;2024-03-29T07:08:11;14.60;97.50
39017;DHT22;24784;45.582;5.276;2024-03-29T07:10:36;14.60;97.70
39017;DHT22;24784;45.582;5.276;2024-03-29T07:13:02;14.60;97.90
39017;DHT22;24784;45.582;5.276;2024-03-29T07:15:27;14.60;97.90
39017;DHT22;24784;45.582;5.276;2024-03-29T07:17:53;14.60;98.10
39017;DHT22;24784;45.582;5.276;2024-03-29T07:20:19;14.80;97.80
39017;DHT22;24784;45.582;5.276;2024-03-29T07:22:44;14.80;97.70
39017;DHT22;24784;45.582;5.276;2024-03-29T07:25:11;14.90;97.70
39017;DHT22;24784;45.582;5.276;2024-03-29T07:27:37;14.90;97.70
39017;DHT22;24784;45.582;5.276;2024-03-29T07:30:03;14.90;98.00
39017;DHT22;24784;45.582;5.276;2024-03-29T07:32:34;14.90;97.80
39017;DHT22;24784;45.582;5.276;2024-03-29T07:34:59;15.00;97.70
39017;DHT22;24784;45.582;5.276;2024-03-29T07:37:25;15.00;97.70
39017;DHT22;24784;45.582;5.276;2024-03-29T07:39:51;15.20;97.40
39017;DHT22;24784;45.582;5.276;2024-03-29T07:42:17;15.20;97.40
39017;DHT22;24784;45.582;5.276;2024-03-29T07:44:43;15.20;97.50
39017;DHT22;24784;45.582;5.276;2024-03-29T07:47:08;15.30;97.30
39017;DHT22;24784;45.582;5.276;2024-03-29T07:49:34;15.30;97.30
39017;DHT22;24784;45.582;5.276;2024-03-29T07:52:02;15.40;97.20
39017;DHT22;24784;45.582;5.276;2024-03-29T07:54:33;15.50;97.00
39017;DHT22;24784;45.582;5.276;2024-03-29T07:56:59;15.50;97.10
39017;DHT22;24784;45.582;5.276;2024-03-29T07:59:24;15.60;96.70
39017;DHT22;24784;45.582;5.276;2024-03-29T08:01:50;15.50;96.90
39017;DHT22;24784;45.582;5.276;2024-03-29T08:04:17;15.70;96.70
39017;DHT22;24784;45.582;5.276;2024-03-29T08:06:43;15.70;96.50
39017;DHT22;24784;45.582;5.276;2024-03-29T08:09:09;15.70;96.80
39017;DHT22;24784;45.582;5.276;2024-03-29T08:11:35;15.60;96.60
39017;DHT22;24784;45.582;5.276;2024-03-29T08:14:01;15.70;96.60
39017;DHT22;24784;45.582;5.276;2024-03-29T08:16:27;15.60;96.70
39017;DHT22;24784;45.582;5.276;2024-03-29T08:18:53;15.70;96.50
39017;DHT22;24784;45.582;5.276;2024-03-29T08:21:18;15.80;96.30
39017;DHT22;24784;45.582;5.276;2024-03-29T08:23:44;15.80;96.10
39017;DHT22;24784;45.582;5.276;2024-03-29T08:26:11;15.90;95.90
39017;DHT22;24784;45.582;5.276;2024-03-29T08:28:37;15.90;96.20
39017;DHT22;24784;45.582;5.276;2024-03-29T08:31:05;15.90;96.40
39017;DHT22;24784;45.582;5.276;2024-03-29T08:33:32;16.00;95.90
39017;DHT22;24784;45.582;5.276;2024-03-29T08:35:57;16.10;95.50
39017;DHT22;24784;45.582;5.276;2024-03-29T08:38:24;16.20;95.50
39017;DHT22;24784;45.582;5.276;2024-03-29T08:40:49;16.30;94.60
39017;DHT22;24784;45.582;5.276;2024-03-29T08:43:16;16.40;94.70
39017;DHT22;24784;45.582;5.276;2024-03-29T08:45:46;16.30;94.00
39017;DHT22;24784;45.582;5.276;2024-03-29T08:48:12;16.50;94.50
39017;DHT22;24784;45.582;5.276;2024-03-29T08:50:37;16.50;94.40
39017;DHT22;24784;45.582;5.276;2024-03-29T08:53:03;16.70;94.20
39017;DHT22;24784;45.582;5.276;2024-03-29T08:55:30;16.80;94.50
39017;DHT22;24784;45.582;5.276;2024-03-29T08:58:00;16.80;94.30
39017;DHT22;24784;45.582;5.276;2024-03-29T09:00:27;16.80;94.10
39017;DHT22;24784;45.582;5.276;2024-03-29T09:02:53;16.80;94.40
39017;DHT22;24784;45.582;5.276;2024-03-29T09:05:19;16.80;94.10
39017;DHT22;24784;45.582;5.276;2024-03-29T09:07:45;16.90;94.00
39017;DHT22;24784;45.582;5.276;2024-03-29T09:10:12;17.10;93.70
39017;DHT22;24784;45.582;5.276;2024-03-29T09:12:38;17.20;93.60
39017;DHT22;24784;45.582;5.276;2024-03-29T09:15:05;17.30;93.20
39017;DHT22;24784;45.582;5.276;2024-03-29T09:17:34;17.30;93.20
39017;DHT22;24784;45.582;5.276;2024-03-29T09:20:00;17.40;92.70
39017;DHT22;24784;45.582;5.276;2024-03-29T09:22:25;17.40;93.00
39017;DHT22;24784;45.582;5.276;2024-03-29T09:24:51;17.50;91.90
39017;DHT22;24784;45.582;5.276;2024-03-29T09:27:17;17.60;91.40
39017;DHT22;24784;45.582;5.276;2024-03-29T09:29:42;17.60;91.40
39017;DHT22;24784;45.582;5.276;2024-03-29T09:32:08;17.60;90.50
39017;DHT22;24784;45.582;5.276;2024-03-29T09:34:34;17.70;88.90
39017;DHT22;24784;45.582;5.276;2024-03-29T09:37:00;17.70;89.20
39017;DHT22;24784;45.582;5.276;2024-03-29T09:39:25;17.70;89.30
39017;DHT22;24784;45.582;5.276;2024-03-29T09:41:52;17.70;90.10
39017;DHT22;24784;45.582;5.276;2024-03-29T09:44:22;17.60;89.20
39017;DHT22;24784;45.582;5.276;2024-03-29T09:46:50;17.60;87.60
39017;DHT22;24784;45.582;5.276;2024-03-29T09:49:17;17.70;88.00
39017;DHT22;24784;45.582;5.276;2024-03-29T09:51:44;17.60;88.30
39017;DHT22;24784;45.582;5.276;2024-03-29T09:54:10;17.70;87.70
39017;DHT22;24784;45.582;5.276;2024-03-29T09:56:38;17.70;88.00
39017;DHT22;24784;45.582;5.276;2024-03-29T09:59:05;17.70;88.10
39017;DHT22;24784;45.582;5.276;2024-03-29T10:01:31;17.80;86.30
39017;DHT22;24784;45.582;5.276;2024-03-29T10:03:57;17.70;86.90
39017;DHT22;24784;45.582;5.276;2024-03-29T10:06:24;17.80;85.70
39017;DHT22;24784;45.582;5.276;2024-03-29T10:08:50;17.80;86.20
39017;DHT22;24784;45.582;5.276;2024-03-29T10:11:17;17.80;86.10
39017;DHT22;24784;45.582;5.276;2024-03-29T10:13:45;17.80;86.40
39017;DHT22;24784;45.582;5.276;2024-03-29T10:16:11;17.80;85.60
39017;DHT22;24784;45.582;5.276;2024-03-29T10:18:40;17.80;85.30
39017;DHT22;24784;45.582;5.276;2024-03-29T10:21:07;17.70;86.70
39017;DHT22;24784;45.582;5.276;2024-03-29T10:23:34;17.70;86.30
39017;DHT22;24784;45.582;5.276;2024-03-29T10:26:01;17.80;86.70
39017;DHT22;24784;45.582;5.276;2024-03-29T10:28:32;17.80;85.30
39017;DHT22;24784;45.582;5.276;2024-03-29T10:30:59;17.70;86.50
39017;DHT22;24784;45.582;5.276;2024-03-29T10:33:28;17.80;87.90
39017;DHT22;24784;45.582;5.276;2024-03-29T10:35:54;17.80;87.10
39017;DHT22;24784;45.582;5.276;2024-03-29T10:38:21;17.80;89.30
39017;DHT22;24784;45.582;5.276;2024-03-29T10:40:48;17.80;88.30
39017;DHT22;24784;45.582;5.276;2024-03-29T10:43:16;17.70;88.40
39017;DHT22;24784;45.582;5.276;2024-03-29T10:45:42;17.70;87.50
39017;DHT22;24784;45.582;5.276;2024-03-29T10:48:09;17.80;87.10
39017;DHT22;24784;45.582;5.276;2024-03-29T10:50:38;17.80;89.40
39017;DHT22;24784;45.582;5.276;2024-03-29T10:53:06;17.70;89.40
39017;DHT22;24784;45.582;5.276;2024-03-29T10:55:36;17.70;90.60
39017;DHT22;24784;45.582;5.276;2024-03-29T10:58:04;17.70;88.60
39017;DHT22;24784;45.582;5.276;2024-03-29T11:00:34;17.80;89.00
39017;DHT22;24784;45.582;5.276;2024-03-29T11:03:15;17.80;88.30
39017;DHT22;24784;45.582;5.276;2024-03-29T11:05:54;17.80;88.30
39017;DHT22;24784;45.582;5.276;2024-03-29T11:08:25;17.80;87.90
39017;DHT22;24784;45.582;5.276;2024-03-29T11:10:54;17.80;89.80
39017;DHT22;24784;45.582;5.276;2024-03-29T11:13:40;17.80;89.00
39017;DHT22;24784;45.582;5.276;2024-03-29T11:16:11;17.90;87.00
39017;DHT22;24784;45.582;5.276;2024-03-29T11:18:37;17.90;89.10
39017;DHT22;24784;45.582;5.276;2024-03-29T11:21:04;18.00;90.50
39017;DHT22;24784;45.582;5.276;2024-03-29T11:23:32;18.10;88.10
39017;DHT22;24784;45.582;5.276;2024-03-29T11:25:58;18.20;87.90
39017;DHT22;24784;45.582;5.276;2024-03-29T11:30:52;18.30;88.00
39017;DHT22;24784;45.582;5.276;2024-03-29T11:36:19;18.40;86.90
39017;DHT22;24784;45.582;5.276;2024-03-29T11:38:49;18.50;89.50
39017;DHT22;24784;45.582;5.276;2024-03-29T11:41:16;18.50;86.40
39017;DHT22;24784;45.582;5.276;2024-03-29T11:43:43;18.60;87.10
39017;DHT22;24784;45.582;5.276;2024-03-29T11:46:13;18.80;86.80
39017;DHT22;24784;45.582;5.276;2024-03-29T11:48:39;18.80;86.40
39017;DHT22;24784;45.582;5.276;2024-03-29T11:51:07;18.80;84.80
39017;DHT22;24784;45.582;5.276;2024-03-29T11:53:33;18.90;86.20
39017;DHT22;24784;45.582;5.276;2024-03-29T11:56:01;18.90;85.50
39017;DHT22;24784;45.582;5.276;2024-03-29T11:58:28;19.00;84.10
39017;DHT22;24784;45.582;5.276;2024-03-29T12:00:55;19.00;81.80
39017;DHT22;24784;45.582;5.276;2024-03-29T12:03:23;19.10;80.90
39017;DHT22;24784;45.582;5.276;2024-03-29T12:05:51;19.10;81.80
39017;DHT22;24784;45.582;5.276;2024-03-29T12:08:17;19.10;82.90
39017;DHT22;24784;45.582;5.276;2024-03-29T12:10:43;19.10;81.60
39017;DHT22;24784;45.582;5.276;2024-03-29T12:13:10;19.20;82.20
39017;DHT22;24784;45.582;5.276;2024-03-29T12:15:36;19.20;82.40
39017;DHT22;24784;45.582;5.276;2024-03-29T12:18:03;19.20;81.30
39017;DHT22;24784;45.582;5.276;2024-03-29T12:20:33;19.30;81.20
39017;DHT22;24784;45.582;5.276;2024-03-29T12:23:00;19.30;83.90
39017;DHT22;24784;45.582;5.276;2024-03-29T12:25:28;19.30;85.60
39017;DHT22;24784;45.582;5.276;2024-03-29T12:27:54;19.20;82.70
39017;DHT22;24784;45.582;5.276;2024-03-29T12:30:20;19.30;84.30
39017;DHT22;24784;45.582;5.276;2024-03-29T12:32:46;19.30;85.40
39017;DHT22;24784;45.582;5.276;2024-03-29T12:35:14;19.30;84.20
39017;DHT22;24784;45.582;5.276;2024-03-29T12:37:50;19.40;86.10
39017;DHT22;24784;45.582;5.276;2024-03-29T12:40:19;19.30;86.20
39017;DHT22;24784;45.582;5.276;2024-03-29T12:42:51;19.40;84.20
39017;DHT22;24784;45.582;5.276;2024-03-29T12:45:18;19.40;81.50
39017;DHT22;24784;45.582;5.276;2024-03-29T12:47:45;19.60;79.60
39017;DHT22;24784;45.582;5.276;2024-03-29T12:50:19;19.80;78.80
39017;DHT22;24784;45.582;5.276;2024-03-29T12:52:45;20.00;75.80
39017;DHT22;24784;45.582;5.276;2024-03-29T12:55:11;20.20;76.10
39017;DHT22;24784;45.582;5.276;2024-03-29T12:57:37;20.30;78.00
39017;DHT22;24784;45.582;5.276;2024-03-29T13:00:06;20.40;78.10
39017;DHT22;24784;45.582;5.276;2024-03-29T13:02:35;20.60;75.30
39017;DHT22;24784;45.582;5.276;2024-03-29T13:05:02;20.60;73.70
39017;DHT22;24784;45.582;5.276;2024-03-29T13:07:28;20.60;73.60
39017;DHT22;24784;45.582;5.276;2024-03-29T13:09:54;20.60;73.10
39017;DHT22;24784;45.582;5.276;2024-03-29T13:12:20;20.60;72.50
39017;DHT22;24784;45.582;5.276;2024-03-29T13:14:46;20.60;73.30
39017;DHT22;24784;45.582;5.276;2024-03-29T13:17:12;20.60;72.90
39017;DHT22;24784;45.582;5.276;2024-03-29T13:19:37;20.60;73.10
39017;DHT22;24784;45.582;5.276;2024-03-29T13:22:03;20.60;75.20
39017;DHT22;24784;45.582;5.276;2024-03-29T13:24:29;20.70;74.50
39017;DHT22;24784;45.582;5.276;2024-03-29T13:26:55;20.80;71.40
39017;DHT22;24784;45.582;5.276;2024-03-29T13:29:21;20.80;72.90
39017;DHT22;24784;45.582;5.276;2024-03-29T13:31:46;20.80;72.50
39017;DHT22;24784;45.582;5.276;2024-03-29T13:34:12;20.80;71.90
39017;DHT22;24784;45.582;5.276;2024-03-29T13:36:39;20.90;71.60
39017;DHT22;24784;45.582;5.276;2024-03-29T13:39:05;20.90;74.20
39017;DHT22;24784;45.582;5.276;2024-03-29T13:41:33;21.00;74.40
39017;DHT22;24784;45.582;5.276;2024-03-29T13:44:01;21.00;75.00
39017;DHT22;24784;45.582;5.276;2024-03-29T13:46:34;20.90;76.50
39017;DHT22;24784;45.582;5.276;2024-03-29T13:49:01;20.90;75.50
39017;DHT22;24784;45.582;5.276;2024-03-29T13:51:27;20.90;76.50
39017;DHT22;24784;45.582;5.276;2024-03-29T13:53:53;20.80;77.60
39017;DHT22;24784;45.582;5.276;2024-03-29T13:56:22;20.80;78.40
39017;DHT22;24784;45.582;5.276;2024-03-29T13:58:48;20.80;78.20
39017;DHT22;24784;45.582;5.276;2024-03-29T14:01:13;20.70;78.20
39017;DHT22;24784;45.582;5.276;2024-03-29T14:03:39;20.70;77.10
39017;DHT22;24784;45.582;5.276;2024-03-29T14:06:05;20.70;77.00
39017;DHT22;24784;45.582;5.276;2024-03-29T14:08:31;20.70;80.50
39017;DHT22;24784;45.582;5.276;2024-03-29T14:10:58;20.60;77.00
39017;DHT22;24784;45.582;5.276;2024-03-29T14:13:24;20.60;78.30
39017;DHT22;24784;45.582;5.276;2024-03-29T14:15:50;20.60;77.90
39017;DHT22;24784;45.582;5.276;2024-03-29T14:18:15;20.50;76.50
39017;DHT22;24784;45.582;5.276;2024-03-29T14:20:41;20.60;76.60
39017;DHT22;24784;45.582;5.276;2024-03-29T14:23:06;20.50;75.80
39017;DHT22;24784;45.582;5.276;2024-03-29T14:25:36;20.50;76.90
39017;DHT22;24784;45.582;5.276;2024-03-29T14:28:03;20.40;77.70
39017;DHT22;24784;45.582;5.276;2024-03-29T14:30:29;20.40;78.00
39017;DHT22;24784;45.582;5.276;2024-03-29T14:32:55;20.30;77.80
39017;DHT22;24784;45.582;5.276;2024-03-29T14:35:22;20.40;79.30
39017;DHT22;24784;45.582;5.276;2024-03-29T14:37:48;20.40;78.60
39017;DHT22;24784;45.582;5.276;2024-03-29T14:40:14;20.40;78.50
39017;DHT22;24784;45.582;5.276;2024-03-29T14:42:42;20.30;80.10
39017;DHT22;24784;45.582;5.276;2024-03-29T14:45:09;20.20;78.10
39017;DHT22;24784;45.582;5.276;2024-03-29T14:47:37;20.20;78.30
39017;DHT22;24784;45.582;5.276;2024-03-29T14:50:04;20.10;80.70
39017;DHT22;24784;45.582;5.276;2024-03-29T14:52:39;20.00;78.90
39017;DHT22;24784;45.582;5.276;2024-03-29T14:55:05;20.00;77.00
39017;DHT22;24784;45.582;5.276;2024-03-29T14:57:31;20.00;78.30
39017;DHT22;24784;45.582;5.276;2024-03-29T14:59:57;19.90;80.30
39017;DHT22;24784;45.582;5.276;2024-03-29T15:02:23;19.90;80.20
39017;DHT22;24784;45.582;5.276;2024-03-29T15:04:49;19.80;78.70
39017;DHT22;24784;45.582;5.276;2024-03-29T15:07:15;19.70;79.10
39017;DHT22;24784;45.582;5.276;2024-03-29T15:09:40;19.70;80.00
39017;DHT22;24784;45.582;5.276;2024-03-29T15:12:06;19.70;79.60
39017;DHT22;24784;45.582;5.276;2024-03-29T15:14:34;19.60;79.50
39017;DHT22;24784;45.582;5.276;2024-03-29T15:17:03;19.60;80.40
39017;DHT22;24784;45.582;5.276;2024-03-29T15:19:29;19.60;80.20
39017;DHT22;24784;45.582;5.276;2024-03-29T15:21:58;19.50;79.40
39017;DHT22;24784;45.582;5.276;2024-03-29T15:24:24;19.60;79.50
39017;DHT22;24784;45.582;5.276;2024-03-29T15:26:50;19.50;79.50
39017;DHT22;24784;45.582;5.276;2024-03-29T15:29:24;19.50;79.40
39017;DHT22;24784;45.582;5.276;2024-03-29T15:31:50;19.40;80.40
39017;DHT22;24784;45.582;5.276;2024-03-29T15:34:16;19.40;81.00